createdAt,value
2022-11-06T00:00:55.411Z,52.30
2022-11-06T00:03:22.284Z,52.20
2022-11-06T00:05:49.043Z,52.40
2022-11-06T00:08:16.579Z,52.30
2022-11-06T00:10:43.486Z,52.30
2022-11-06T00:13:10.213Z,52.30
2022-11-06T00:15:36.947Z,52.20
2022-11-06T00:18:05.144Z,52.00
2022-11-06T00:20:31.917Z,52.00
2022-11-06T00:22:58.705Z,52.00
2022-11-06T00:25:25.502Z,52.00
2022-11-06T00:27:52.241Z,52.20
2022-11-06T00:30:19.242Z,52.20
2022-11-06T00:32:46.034Z,51.90
2022-11-06T00:35:14.650Z,52.00
2022-11-06T00:37:41.412Z,51.90
2022-11-06T00:40:08.980Z,52.00
2022-11-06T00:42:35.723Z,51.70
2022-11-06T00:45:02.500Z,51.80
2022-11-06T00:47:29.225Z,51.90
2022-11-06T00:49:55.988Z,51.90
2022-11-06T00:52:24.139Z,51.70
2022-11-06T00:54:50.920Z,51.70
2022-11-06T00:57:17.697Z,51.80
2022-11-06T00:59:44.456Z,51.80
2022-11-06T01:02:11.405Z,51.90
2022-11-06T01:04:38.317Z,51.90
2022-11-06T01:07:05.144Z,52.00
2022-11-06T01:09:33.284Z,51.90
2022-11-06T01:12:12.900Z,52.00
2022-11-06T01:14:41.192Z,51.90
2022-11-06T01:17:07.949Z,51.80
2022-11-06T01:19:34.747Z,51.90
2022-11-06T01:22:01.619Z,51.80
2022-11-06T01:24:29.312Z,51.80
2022-11-06T01:27:24.889Z,51.90
2022-11-06T01:29:44.937Z,52.20
2022-11-06T01:32:11.934Z,52.10
2022-11-06T01:34:38.717Z,52.30
2022-11-06T01:37:05.626Z,52.20
2022-11-06T01:39:32.645Z,52.10
2022-11-06T01:42:00.775Z,52.00
2022-11-06T01:45:05.796Z,52.20
2022-11-06T01:47:32.536Z,52.10
2022-11-06T01:50:02.557Z,51.90
2022-11-06T01:52:30.835Z,52.00
2022-11-06T01:55:02.430Z,52.00
2022-11-06T01:57:30.555Z,51.90
2022-11-06T01:59:57.413Z,52.00
2022-11-06T02:02:24.446Z,51.90
2022-11-06T02:04:51.417Z,52.00
2022-11-06T02:07:19.694Z,51.90
2022-11-06T02:09:46.702Z,51.80
2022-11-06T02:12:21.862Z,52.10
2022-11-06T02:15:00.621Z,52.00
2022-11-06T02:17:47.599Z,52.00
2022-11-06T02:20:22.702Z,52.00
2022-11-06T02:23:08.334Z,52.00
2022-11-06T02:25:46.337Z,51.90
2022-11-06T02:28:21.818Z,52.20
2022-11-06T02:30:51.341Z,52.30
2022-11-06T02:33:23.293Z,52.20
2022-11-06T02:35:55.996Z,51.90
2022-11-06T02:38:27.077Z,52.10
2022-11-06T02:40:57.288Z,52.10
2022-11-06T02:43:31.109Z,52.00
2022-11-06T02:46:02.636Z,51.90
2022-11-06T02:48:35.006Z,51.80
2022-11-06T02:51:05.453Z,52.10
2022-11-06T02:53:33.318Z,52.00
2022-11-06T02:56:05.327Z,51.90
2022-11-06T02:58:39.210Z,52.00
2022-11-06T03:01:12.758Z,51.90
2022-11-06T03:03:42.429Z,52.20
2022-11-06T03:06:14.122Z,52.10
2022-11-06T03:08:44.573Z,52.00
2022-11-06T03:11:17.109Z,52.10
2022-11-06T03:13:51.707Z,52.30
2022-11-06T03:16:28.781Z,52.40
2022-11-06T03:19:02.524Z,52.20
2022-11-06T03:21:36.378Z,52.00
2022-11-06T03:24:12.796Z,52.10
2022-11-06T03:26:45.432Z,52.10
2022-11-06T03:29:18.316Z,52.30
2022-11-06T03:31:50.485Z,52.40
2022-11-06T03:34:24.828Z,52.50
2022-11-06T03:36:57.563Z,52.40
2022-11-06T03:39:29.356Z,52.70
2022-11-06T03:42:02.449Z,52.70
2022-11-06T03:44:32.782Z,52.70
2022-11-06T03:47:03.970Z,52.70
2022-11-06T03:49:34.761Z,52.50
2022-11-06T03:52:04.476Z,52.50
2022-11-06T03:54:39.463Z,52.50
2022-11-06T03:57:12.587Z,52.70
2022-11-06T03:59:44.544Z,53.10
2022-11-06T04:02:13.653Z,53.00
2022-11-06T04:04:46.272Z,53.20
2022-11-06T04:07:16.063Z,53.40
2022-11-06T04:09:46.814Z,53.10
2022-11-06T04:12:19.364Z,53.20
2022-11-06T04:14:51.153Z,53.30
2022-11-06T04:17:18.793Z,53.30
2022-11-06T04:19:49.854Z,53.00
2022-11-06T04:22:32.160Z,53.30
2022-11-06T04:25:15.680Z,53.00
2022-11-06T04:27:56.077Z,52.60
2022-11-06T04:30:24.659Z,52.50
2022-11-06T04:33:09.537Z,52.50
2022-11-06T04:35:48.432Z,52.60
2022-11-06T04:38:25.522Z,52.70
2022-11-06T04:40:59.675Z,52.50
2022-11-06T04:43:33.237Z,52.70
2022-11-06T04:46:04.850Z,52.30
2022-11-06T04:48:31.964Z,52.40
2022-11-06T04:51:02.930Z,52.20
2022-11-06T04:53:31.750Z,52.30
2022-11-06T04:56:01.897Z,52.10
2022-11-06T04:58:28.649Z,52.00
2022-11-06T05:00:55.483Z,52.10
2022-11-06T05:03:23.655Z,51.90
2022-11-06T05:05:50.443Z,51.90
2022-11-06T05:08:19.074Z,51.90
2022-11-06T05:10:46.805Z,51.80
2022-11-06T05:13:14.476Z,52.00
2022-11-06T05:15:41.407Z,52.00
2022-11-06T05:18:08.345Z,51.90
2022-11-06T05:20:36.626Z,52.10
2022-11-06T05:23:03.845Z,51.90
2022-11-06T05:25:32.586Z,51.80
2022-11-06T05:28:00.977Z,51.90
2022-11-06T05:30:28.345Z,52.50
2022-11-06T05:32:55.279Z,52.60
2022-11-06T05:35:22.242Z,51.90
2022-11-06T05:37:50.405Z,51.90
2022-11-06T05:40:17.652Z,51.80
2022-11-06T05:42:44.760Z,51.80
2022-11-06T05:45:12.198Z,52.00
2022-11-06T05:47:41.000Z,51.90
2022-11-06T05:50:09.006Z,51.80
2022-11-06T05:52:36.194Z,51.80
2022-11-06T05:55:07.701Z,51.90
2022-11-06T05:57:37.027Z,52.00
2022-11-06T06:00:05.377Z,51.90
2022-11-06T06:02:32.381Z,51.90
2022-11-06T06:04:59.240Z,51.90
2022-11-06T06:07:26.013Z,51.90
2022-11-06T06:09:52.760Z,51.60
2022-11-06T06:12:20.957Z,51.60
2022-11-06T06:14:50.429Z,51.60
2022-11-06T06:17:17.480Z,51.70
2022-11-06T06:19:44.274Z,51.60
2022-11-06T06:22:11.197Z,51.80
2022-11-06T06:24:38.471Z,51.70
2022-11-06T06:27:05.510Z,51.70
2022-11-06T06:29:33.732Z,51.80
2022-11-06T06:32:00.620Z,51.80
2022-11-06T06:34:27.376Z,51.80
2022-11-06T06:36:54.377Z,52.10
2022-11-06T06:39:21.410Z,52.40
2022-11-06T06:41:48.811Z,51.80
2022-11-06T06:44:16.218Z,51.90
2022-11-06T06:46:44.369Z,51.90
2022-11-06T06:49:11.286Z,51.90
2022-11-06T06:51:38.076Z,52.00
2022-11-06T06:54:04.923Z,51.80
2022-11-06T06:56:31.705Z,52.50
2022-11-06T06:58:58.510Z,52.00
2022-11-06T07:01:25.419Z,52.00
2022-11-06T07:03:53.641Z,52.00
2022-11-06T07:06:20.444Z,51.80
2022-11-06T07:08:47.310Z,51.90
2022-11-06T07:11:14.086Z,51.70
2022-11-06T07:13:40.849Z,51.60
2022-11-06T07:16:09.649Z,51.80
2022-11-06T07:18:37.567Z,51.70
2022-11-06T07:21:07.868Z,51.70
2022-11-06T07:23:35.632Z,51.80
2022-11-06T07:26:03.583Z,51.90
2022-11-06T07:28:30.597Z,51.80
2022-11-06T07:31:01.942Z,51.90
2022-11-06T07:33:28.889Z,52.20
2022-11-06T07:35:55.798Z,52.00
2022-11-06T07:38:23.878Z,52.40
2022-11-06T07:40:50.673Z,52.10
2022-11-06T07:43:17.533Z,52.20
2022-11-06T07:45:44.329Z,52.10
2022-11-06T07:48:11.196Z,52.20
2022-11-06T07:50:38.087Z,52.30
2022-11-06T07:53:04.924Z,52.30
2022-11-06T07:55:35.562Z,52.30
2022-11-06T07:58:06.171Z,52.30
2022-11-06T08:00:32.880Z,52.60
2022-11-06T08:02:59.661Z,52.70
2022-11-06T08:05:26.536Z,52.70
2022-11-06T08:07:56.651Z,52.80
2022-11-06T08:10:23.457Z,52.90
2022-11-06T08:12:51.618Z,53.00
2022-11-06T08:15:18.316Z,53.70
2022-11-06T08:17:45.101Z,53.80
2022-11-06T08:20:12.086Z,53.40
2022-11-06T08:22:38.857Z,53.40
2022-11-06T08:25:06.801Z,53.80
2022-11-06T08:27:33.503Z,54.20
2022-11-06T08:30:02.476Z,53.90
2022-11-06T08:32:29.307Z,54.00
2022-11-06T08:34:56.272Z,54.00
2022-11-06T08:37:23.104Z,53.80
2022-11-06T08:39:49.888Z,54.00
2022-11-06T08:42:16.857Z,53.80
2022-11-06T08:44:43.643Z,53.80
2022-11-06T08:47:11.835Z,54.00
2022-11-06T08:49:38.588Z,54.10
2022-11-06T08:52:05.349Z,54.10
2022-11-06T08:54:32.105Z,54.40
2022-11-06T08:56:58.847Z,54.10
2022-11-06T08:59:25.685Z,54.00
2022-11-06T09:01:52.558Z,54.40
2022-11-06T09:04:20.901Z,54.60
2022-11-06T09:06:47.595Z,54.30
2022-11-06T09:09:14.566Z,54.10
2022-11-06T09:11:41.306Z,54.30
2022-11-06T09:14:08.116Z,54.10
2022-11-06T09:16:34.918Z,54.50
2022-11-06T09:19:01.720Z,54.90
2022-11-06T09:21:29.842Z,54.30
2022-11-06T09:23:56.588Z,54.20
2022-11-06T09:26:23.379Z,54.10
2022-11-06T09:28:50.127Z,54.10
2022-11-06T09:31:16.997Z,54.10
2022-11-06T09:33:43.683Z,54.00
2022-11-06T09:36:10.509Z,53.90
2022-11-06T09:38:38.648Z,54.60
2022-11-06T09:41:05.830Z,53.80
2022-11-06T09:44:05.524Z,53.70
2022-11-06T09:46:37.468Z,53.40
2022-11-06T09:49:12.053Z,53.50
2022-11-06T09:51:41.971Z,53.60
2022-11-06T09:54:15.978Z,53.50
2022-11-06T09:56:45.401Z,53.60
2022-11-06T09:59:16.514Z,53.60
2022-11-06T10:01:47.419Z,53.60
2022-11-06T10:04:26.983Z,53.50
2022-11-06T10:06:53.876Z,53.20
2022-11-06T10:09:22.083Z,52.90
2022-11-06T10:12:07.912Z,53.50
2022-11-06T10:14:54.077Z,52.80
2022-11-06T10:17:35.289Z,52.50
2022-11-06T10:20:11.421Z,52.60
2022-11-06T10:22:40.418Z,52.70
2022-11-06T10:25:19.198Z,52.10
2022-11-06T10:27:59.014Z,51.90
2022-11-06T10:30:27.493Z,52.00
2022-11-06T10:33:11.471Z,52.00
2022-11-06T10:35:42.739Z,51.90
2022-11-06T10:38:14.292Z,52.10
2022-11-06T10:40:45.184Z,51.80
2022-11-06T10:43:24.715Z,51.90
2022-11-06T10:45:59.207Z,52.10
2022-11-06T10:48:33.259Z,51.90
2022-11-06T10:51:17.925Z,51.40
2022-11-06T10:53:53.711Z,51.60
2022-11-06T10:56:41.834Z,52.80
2022-11-06T10:59:08.985Z,52.40
2022-11-06T11:01:37.442Z,52.90
2022-11-06T11:04:04.599Z,52.50
2022-11-06T11:06:31.674Z,52.40
2022-11-06T11:08:58.489Z,51.90
2022-11-06T11:11:28.023Z,52.00
2022-11-06T11:14:21.738Z,52.20
2022-11-06T11:16:49.007Z,52.30
2022-11-06T11:19:32.686Z,52.70
2022-11-06T11:22:01.370Z,52.30
2022-11-06T11:24:28.811Z,51.90
2022-11-06T11:27:00.676Z,51.60
2022-11-06T11:29:31.418Z,51.20
2022-11-06T11:32:01.172Z,50.70
2022-11-06T11:34:30.684Z,50.70
2022-11-06T11:37:00.611Z,50.20
2022-11-06T11:39:31.208Z,50.30
2022-11-06T11:45:14.486Z,50.00
2022-11-06T11:47:42.465Z,48.90
2022-11-06T11:50:33.742Z,48.90
2022-11-06T11:53:11.020Z,48.90
2022-11-06T11:55:43.292Z,48.90
2022-11-06T11:58:21.050Z,48.50
2022-11-06T12:00:55.125Z,47.50
2022-11-06T12:03:24.324Z,47.70
2022-11-06T12:05:53.347Z,46.80
2022-11-06T12:08:25.334Z,46.30
2022-11-06T12:10:52.233Z,46.10
2022-11-06T12:13:21.024Z,46.70
2022-11-06T12:15:53.846Z,47.30
2022-11-06T12:18:25.648Z,47.20
2022-11-06T12:21:00.344Z,47.60
2022-11-06T12:23:34.048Z,46.80
2022-11-06T12:26:07.410Z,46.60
2022-11-06T12:28:37.298Z,46.40
2022-11-06T12:31:15.021Z,46.20
2022-11-06T12:34:05.699Z,46.40
2022-11-06T12:36:33.503Z,47.00
2022-11-06T12:39:03.889Z,47.30
2022-11-06T12:41:33.689Z,46.80
2022-11-06T12:44:00.672Z,46.70
2022-11-06T12:46:39.468Z,46.70
2022-11-06T12:49:31.131Z,46.10
2022-11-06T12:52:13.891Z,45.90
2022-11-06T12:54:51.490Z,46.70
2022-11-06T12:57:26.985Z,47.00
2022-11-06T13:00:04.221Z,46.90
2022-11-06T13:02:52.208Z,46.30
2022-11-06T13:05:23.185Z,46.20
2022-11-06T13:08:03.550Z,46.10
2022-11-06T13:10:40.808Z,46.20
2022-11-06T13:13:27.913Z,45.70
2022-11-06T13:16:00.124Z,45.80
2022-11-06T13:18:34.057Z,46.20
2022-11-06T13:21:05.075Z,46.00
2022-11-06T13:23:37.811Z,46.40
2022-11-06T13:26:12.970Z,46.40
2022-11-06T13:28:43.216Z,46.60
2022-11-06T13:31:14.301Z,47.00
2022-11-06T13:33:47.103Z,47.00
2022-11-06T13:36:14.788Z,46.90
2022-11-06T13:38:47.545Z,47.20
2022-11-06T13:41:20.179Z,47.20
2022-11-06T13:43:50.914Z,47.20
2022-11-06T13:46:32.757Z,47.40
2022-11-06T13:49:08.696Z,47.30
2022-11-06T13:51:46.967Z,47.60
2022-11-06T13:54:23.957Z,47.60
2022-11-06T13:57:22.459Z,47.70
2022-11-06T14:00:03.314Z,47.60
2022-11-06T14:02:45.745Z,47.80
2022-11-06T14:05:45.017Z,47.90
2022-11-06T14:08:16.949Z,47.80
2022-11-06T14:10:52.369Z,48.30
2022-11-06T14:13:24.786Z,48.20
2022-11-06T14:16:00.175Z,47.90
2022-11-06T14:18:27.211Z,48.10
2022-11-06T14:21:41.843Z,48.20
2022-11-06T14:24:37.230Z,48.30
2022-11-06T14:27:06.525Z,48.20
2022-11-06T14:30:01.727Z,48.50
2022-11-06T14:32:49.192Z,48.40
2022-11-06T14:35:49.643Z,48.30
2022-11-06T14:38:19.440Z,48.50
2022-11-06T14:40:47.542Z,48.60
2022-11-06T14:43:20.016Z,48.30
2022-11-06T14:45:51.793Z,48.40
2022-11-06T14:48:27.397Z,48.30
2022-11-06T14:50:54.301Z,48.30
2022-11-06T14:53:24.349Z,48.30
2022-11-06T14:55:59.955Z,48.40
2022-11-06T14:58:29.034Z,48.30
2022-11-06T15:00:58.164Z,48.30
2022-11-06T15:03:30.132Z,48.30
2022-11-06T15:06:01.488Z,48.40
2022-11-06T15:09:00.720Z,48.30
2022-11-06T15:12:03.277Z,48.30
2022-11-06T15:14:55.217Z,48.40
2022-11-06T15:17:24.267Z,48.40
2022-11-06T15:19:59.801Z,48.80
2022-11-06T15:22:33.457Z,48.50
2022-11-06T15:25:06.002Z,48.70
2022-11-06T15:27:42.835Z,48.60
2022-11-06T15:30:16.469Z,48.60
2022-11-06T15:32:45.398Z,48.60
2022-11-06T15:35:15.661Z,48.60
2022-11-06T15:37:45.053Z,48.70
2022-11-06T15:40:27.426Z,48.50
2022-11-06T15:42:55.792Z,48.40
2022-11-06T15:45:26.842Z,49.30
2022-11-06T15:47:58.273Z,48.50
2022-11-06T15:50:26.466Z,48.70
2022-11-06T15:52:54.335Z,48.80
2022-11-06T15:55:31.581Z,48.70
2022-11-06T15:58:06.891Z,48.60
2022-11-06T16:00:36.094Z,48.60
2022-11-06T16:03:05.487Z,48.60
2022-11-06T16:05:35.008Z,48.90
2022-11-06T16:08:03.211Z,49.00
2022-11-06T16:10:30.172Z,48.90
2022-11-06T16:12:57.099Z,49.00
2022-11-06T16:15:48.060Z,49.20
2022-11-06T16:18:17.522Z,49.00
2022-11-06T16:20:45.446Z,49.20
2022-11-06T16:23:14.604Z,49.30
2022-11-06T16:25:41.700Z,49.50
2022-11-06T16:28:17.049Z,49.30
2022-11-06T16:30:45.327Z,49.20
2022-11-06T16:33:20.140Z,49.40
2022-11-06T16:35:52.620Z,49.30
2022-11-06T16:38:41.978Z,49.50
2022-11-06T16:41:10.770Z,49.40
2022-11-06T16:43:37.747Z,49.50
2022-11-06T16:46:06.669Z,49.60
2022-11-06T16:48:39.771Z,49.60
2022-11-06T16:51:09.467Z,49.50
2022-11-06T16:53:52.219Z,49.60
2022-11-06T16:56:23.616Z,49.40
2022-11-06T16:58:54.091Z,49.50
2022-11-06T17:01:21.576Z,49.50
2022-11-06T17:03:54.738Z,49.50
2022-11-06T17:06:24.396Z,49.50
2022-11-06T17:09:04.964Z,49.50
2022-11-06T17:11:34.925Z,49.50
2022-11-06T17:14:11.045Z,50.30
2022-11-06T17:16:45.918Z,49.50
2022-11-06T17:19:13.996Z,49.40
2022-11-06T17:21:40.722Z,49.40
2022-11-06T17:24:35.460Z,49.50
2022-11-06T17:26:54.683Z,49.50
2022-11-06T17:29:22.448Z,49.60
2022-11-06T17:31:49.317Z,49.60
2022-11-06T17:34:17.357Z,49.60
2022-11-06T17:36:44.106Z,49.50
2022-11-06T17:39:10.867Z,49.60
2022-11-06T17:41:37.606Z,49.50
2022-11-06T17:44:06.723Z,49.60
2022-11-06T17:46:35.508Z,49.60
2022-11-06T17:49:03.421Z,49.60
2022-11-06T17:51:31.843Z,49.60
2022-11-06T17:53:58.539Z,49.60
2022-11-06T17:56:25.522Z,49.70
2022-11-06T17:58:52.250Z,49.70
2022-11-06T18:01:19.095Z,49.80
2022-11-06T18:03:46.228Z,49.90
2022-11-06T18:06:14.932Z,49.70
2022-11-06T18:08:43.874Z,49.80
2022-11-06T18:11:11.131Z,49.80
2022-11-06T18:13:38.595Z,49.90
2022-11-06T18:16:15.435Z,49.90
2022-11-06T18:18:42.974Z,49.70
2022-11-06T18:21:09.824Z,49.80
2022-11-06T18:23:37.083Z,50.00
2022-11-06T18:26:05.860Z,50.00
2022-11-06T18:28:32.620Z,50.00
2022-11-06T18:30:59.801Z,49.80
2022-11-06T18:33:28.635Z,50.00
2022-11-06T18:36:00.122Z,49.90
2022-11-06T18:38:27.078Z,50.00
2022-11-06T18:40:53.951Z,50.20
2022-11-06T18:43:22.152Z,50.20
2022-11-06T18:45:49.243Z,50.20
2022-11-06T18:48:20.932Z,50.30
2022-11-06T18:50:48.257Z,50.30
2022-11-06T18:53:15.287Z,50.40
2022-11-06T18:55:45.466Z,50.30
2022-11-06T18:58:12.892Z,50.20
2022-11-06T19:00:41.195Z,50.40
2022-11-06T19:03:07.969Z,50.30
2022-11-06T19:05:34.704Z,50.40
2022-11-06T19:08:01.521Z,50.40
2022-11-06T19:10:28.403Z,50.40
2022-11-06T19:12:59.112Z,50.60
2022-11-06T19:15:26.628Z,50.70
2022-11-06T19:17:54.965Z,50.50
2022-11-06T19:20:22.119Z,50.60
2022-11-06T19:22:50.177Z,50.70
2022-11-06T19:25:17.164Z,50.60
2022-11-06T19:27:43.895Z,50.70
2022-11-06T19:30:11.485Z,50.80
2022-11-06T19:32:38.190Z,50.80
2022-11-06T19:35:07.033Z,50.80
2022-11-06T19:37:34.025Z,50.70
2022-11-06T19:40:05.682Z,50.70
2022-11-06T19:42:33.360Z,50.80
2022-11-06T19:45:00.138Z,50.80
2022-11-06T19:47:26.949Z,50.70
2022-11-06T19:49:53.729Z,50.90
2022-11-06T19:52:42.441Z,50.70
2022-11-06T19:55:26.393Z,50.90
2022-11-06T19:57:54.584Z,50.70
2022-11-06T20:00:21.314Z,50.80
2022-11-06T20:02:49.181Z,50.80
2022-11-06T20:05:16.411Z,50.70
2022-11-06T20:07:44.465Z,50.70
2022-11-06T20:10:11.256Z,50.70
2022-11-06T20:12:38.141Z,50.60
2022-11-06T20:15:05.820Z,50.60
2022-11-06T20:17:32.541Z,50.60
2022-11-06T20:19:59.274Z,50.50
2022-11-06T20:22:26.039Z,50.50
2022-11-06T20:24:54.097Z,50.50
2022-11-06T20:27:20.875Z,50.50
2022-11-06T20:29:47.609Z,50.50
2022-11-06T20:32:18.887Z,50.70
2022-11-06T20:34:46.876Z,50.50
2022-11-06T20:37:13.735Z,50.50
2022-11-06T20:39:40.495Z,50.50
2022-11-06T20:42:08.590Z,50.50
2022-11-06T20:44:35.337Z,50.50
2022-11-06T20:47:02.126Z,50.50
2022-11-06T20:49:28.948Z,50.60
2022-11-06T20:52:13.219Z,50.60
2022-11-06T20:54:46.397Z,50.50
2022-11-06T20:57:15.551Z,50.60
2022-11-06T20:59:42.326Z,50.50
2022-11-06T21:02:09.786Z,50.60
2022-11-06T21:04:36.745Z,50.60
2022-11-06T21:07:03.461Z,50.60
2022-11-06T21:09:30.245Z,50.60
2022-11-06T21:11:57.055Z,50.50
2022-11-06T21:14:25.406Z,50.50
2022-11-06T21:16:52.126Z,50.60
2022-11-06T21:19:18.891Z,50.40
2022-11-06T21:21:45.615Z,50.40
2022-11-06T21:24:12.395Z,50.50
2022-11-06T21:26:39.615Z,50.50
2022-11-06T21:29:09.163Z,50.50
2022-11-06T21:31:37.284Z,50.40
2022-11-06T21:34:04.821Z,50.40
2022-11-06T21:36:33.785Z,50.50
2022-11-06T21:39:02.343Z,50.70
2022-11-06T21:41:30.613Z,50.50
2022-11-06T21:43:57.534Z,50.50
2022-11-06T21:46:24.404Z,50.50
2022-11-06T21:48:53.024Z,50.50
2022-11-06T21:51:22.010Z,50.60
2022-11-06T21:53:49.261Z,50.70
2022-11-06T21:56:16.402Z,50.70
2022-11-06T21:58:43.323Z,50.80
2022-11-06T22:01:10.185Z,50.60
2022-11-06T22:03:36.936Z,50.60
2022-11-06T22:06:06.316Z,50.50
2022-11-06T22:08:35.824Z,50.70
2022-11-06T22:11:11.399Z,50.70
2022-11-06T22:13:39.023Z,50.70
2022-11-06T22:16:06.533Z,50.70
2022-11-06T22:18:33.550Z,50.80
2022-11-06T22:21:09.752Z,50.70
2022-11-06T22:23:37.385Z,50.80
2022-11-06T22:26:04.681Z,50.80
2022-11-06T22:28:31.558Z,50.90
2022-11-06T22:30:58.414Z,50.80
2022-11-06T22:33:25.518Z,50.80
2022-11-06T22:35:52.513Z,50.90
2022-11-06T22:38:20.562Z,50.90
2022-11-06T22:40:53.961Z,50.70
2022-11-06T22:43:20.701Z,50.90
2022-11-06T22:45:47.650Z,50.90
2022-11-06T22:48:14.526Z,50.90
2022-11-06T22:50:41.365Z,50.90
2022-11-06T22:53:13.640Z,50.90
2022-11-06T22:55:43.230Z,51.00
2022-11-06T22:58:09.964Z,51.00
2022-11-06T23:00:36.974Z,50.90
2022-11-06T23:03:03.941Z,51.10
2022-11-06T23:05:30.871Z,51.00
2022-11-06T23:07:57.657Z,50.90
2022-11-06T23:10:24.470Z,51.10
2022-11-06T23:12:52.536Z,51.00
2022-11-06T23:15:19.328Z,51.10
2022-11-06T23:17:46.048Z,51.00
2022-11-06T23:20:12.786Z,51.10
2022-11-06T23:22:39.556Z,51.10
2022-11-06T23:25:08.142Z,51.10
2022-11-06T23:27:35.922Z,51.10
2022-11-06T23:30:05.161Z,51.10
2022-11-06T23:32:35.151Z,51.10
2022-11-06T23:35:04.599Z,51.10
2022-11-06T23:37:31.629Z,51.10
2022-11-06T23:39:58.358Z,51.20
2022-11-06T23:42:25.186Z,51.10
2022-11-06T23:44:52.170Z,51.20
2022-11-06T23:47:20.280Z,51.20
2022-11-06T23:49:47.022Z,51.20
2022-11-06T23:52:13.893Z,51.20
2022-11-06T23:54:40.602Z,51.20
2022-11-06T23:57:08.434Z,51.10
2022-11-06T23:59:35.536Z,51.00
